Kylmaluoma, Suomi

21. lokakuuta 2018 klo 10:03 (EEST) (GMT +0300)
Kuusamo | | Change Station

Kork 863 ft 65.97 °N, 29.18 °E | Updated 43 minutes ago

Täysin pilvistä
Täysin pilvistä
37 °F
Tuntuu kuin 30 °F
N
12
Tuuli Suunnaltaan vaihteleva Tuuli ilmansuunnasta Etelän ja lounaan välinen

Tänään
Korkea -- | Matala -- °F
--% Sateen mahd.
Eilen
Korkea -- | Matala -- °F
Precip. -- tuumaa
Ilmanpaine 29.80 tuumaa
Näkyvyys 6.2 mailia
Pilviä Täysin pilvistä 200 ft
Tuulen hyytävyys 30 °F
Kastepiste 37 °F
Ilmankosteus 100%
Sademäärä 0.00 tuumaa
Lumensyvyys Ei saatavilla
8:23 AM 5:21 PM
Kasvava kupera kuu, 88% visible
METAR EFKS 210620Z AUTO 20010KT 170V240 9999 OVC002 03/03 Q1009
Ilmanpaine 29.80 tuumaa
Näkyvyys 6.2 mailia
Pilviä Täysin pilvistä 200 ft
Tuulen hyytävyys 30 °F
Kastepiste 37 °F
Ilmankosteus 100%
Sademäärä 0.00 tuumaa
Lumensyvyys Ei saatavilla
8:23 AM 5:21 PM
Kasvava kupera kuu, 88% visible
METAR EFKS 210620Z AUTO 20010KT 170V240 9999 OVC002 03/03 Q1009

Get Severe Weather Alerts

Thanks for signing up!

Be on the lookout for a verification email in your inbox.

You'll start receiving the daily forecast at 6 AM.

×

10-Day Weather Forecast

×

Almanac

Tähtitiede

Oct. 21, 2018 Nousuaika Laskuaika
Valoisa aika
Porvarillinen hämärä
Nauttinen hämärä
Astronominen hämärä
Kuu
Näkyvän valon pituus
Päivän pituus
Tomorrow will be .
, % of the Moon is Illuminated

Tämän päivän ennätykset

Country Highs Country Lows

Community

WunderPhotos

Category 6

Welcome to Category 6. This is the collective home for Weather Underground's featured writeups by Dr. Jeff Masters (right), Bob Henson (left), Chris Burt, and other regular contributors.

Nearby

Ilmanlaatu

  Ilmanlaatu AQ Index Pollutant
Not available.

Lumensyvyys

Station Depth Korkeus

Maanjäristysaktiivisuus

Paikkakunta Distance Mag. Time & Date
Minimum magnitude displayed is 2.5.

Coastal Water Temperatures

Paikka Lämpötila

Stations

Lähimmät sääasemat

Aseman sijainti Lämpötila Tuulen hyytävyys Kastepiste Ilmankosteus Tuuli Precip. Kork Päivitetty Tyyppi